createdAt,value
2023-04-25T00:00:45.411Z,0.00
2023-04-25T00:01:45.356Z,0.00
2023-04-25T00:02:45.431Z,0.00
2023-04-25T00:03:45.686Z,0.00
2023-04-25T00:04:45.643Z,0.00
2023-04-25T00:05:45.257Z,0.00
2023-04-25T00:06:45.130Z,0.00
2023-04-25T00:07:45.084Z,0.00
2023-04-25T00:08:45.043Z,0.00
2023-04-25T00:09:45.007Z,0.00
2023-04-25T00:10:44.949Z,0.00
2023-04-25T00:11:44.904Z,0.00
2023-04-25T00:12:44.856Z,0.00
2023-04-25T00:13:44.813Z,0.00
2023-04-25T00:14:44.765Z,0.00
2023-04-25T00:15:44.855Z,0.00
2023-04-25T00:16:44.673Z,0.00
2023-04-25T00:17:44.671Z,0.00
2023-04-25T00:18:44.581Z,0.00
2023-04-25T00:19:44.537Z,0.00
2023-04-25T00:20:44.490Z,0.00
2023-04-25T00:21:44.468Z,0.00
2023-04-25T00:22:44.405Z,0.00
2023-04-25T00:23:44.359Z,0.00
2023-04-25T00:24:44.313Z,0.00
2023-04-25T00:25:44.265Z,0.00
2023-04-25T00:26:44.223Z,0.00
2023-04-25T00:27:44.360Z,0.00
2023-04-25T00:28:44.125Z,0.00
2023-04-25T00:29:44.082Z,0.00
2023-04-25T00:30:44.045Z,0.00
2023-04-25T00:31:44.036Z,0.00
2023-04-25T00:32:43.989Z,0.00
2023-04-25T00:33:43.946Z,0.00
2023-04-25T00:34:43.855Z,0.00
2023-04-25T00:35:43.803Z,0.00
2023-04-25T00:36:43.765Z,0.00
2023-04-25T00:37:43.728Z,0.00
2023-04-25T00:38:43.858Z,0.00
2023-04-25T00:39:43.626Z,0.00
2023-04-25T00:40:43.580Z,0.00
2023-04-25T00:41:43.533Z,0.00
2023-04-25T00:42:43.490Z,0.00
2023-04-25T00:43:43.443Z,0.00
2023-04-25T00:44:43.430Z,0.00
2023-04-25T00:45:43.396Z,0.00
2023-04-25T00:46:43.354Z,0.00
2023-04-25T00:47:43.380Z,0.00
2023-04-25T00:48:43.217Z,0.00
2023-04-25T00:49:43.179Z,0.00
2023-04-25T00:50:43.123Z,0.00
2023-04-25T00:51:43.100Z,0.00
2023-04-25T00:52:43.038Z,0.00
2023-04-25T00:53:43.005Z,0.00
2023-04-25T00:54:42.942Z,0.00
2023-04-25T00:55:42.896Z,0.00
2023-04-25T00:56:42.861Z,0.00
2023-04-25T00:57:42.817Z,0.00
2023-04-25T00:58:42.789Z,0.00
2023-04-25T00:59:42.719Z,0.00
2023-04-25T01:00:42.729Z,0.00
2023-04-25T01:01:42.659Z,0.00
2023-04-25T01:02:42.712Z,0.00
2023-04-25T01:03:42.674Z,0.00
2023-04-25T01:04:42.496Z,0.00
2023-04-25T01:05:42.449Z,0.00
2023-04-25T01:06:42.456Z,0.00
2023-04-25T01:07:42.381Z,0.00
2023-04-25T01:08:42.307Z,0.00
2023-04-25T01:09:42.277Z,0.00
2023-04-25T01:10:42.218Z,0.00
2023-04-25T01:11:42.178Z,0.00
2023-04-25T01:12:42.153Z,0.00
2023-04-25T01:13:42.122Z,0.00
2023-04-25T01:14:42.064Z,0.00
2023-04-25T01:15:41.994Z,0.00
2023-04-25T01:16:41.973Z,0.00
2023-04-25T01:17:41.932Z,0.00
2023-04-25T01:18:41.863Z,0.00
2023-04-25T01:19:41.852Z,0.00
2023-04-25T01:20:41.769Z,0.00
2023-04-25T01:21:41.730Z,0.00
2023-04-25T01:22:41.677Z,0.00
2023-04-25T01:23:41.640Z,0.00
2023-04-25T01:24:41.601Z,0.00
2023-04-25T01:25:41.572Z,0.00
2023-04-25T01:26:41.494Z,0.00
2023-04-25T01:27:41.490Z,0.00
2023-04-25T01:28:41.400Z,0.00
2023-04-25T01:29:41.365Z,0.00
2023-04-25T01:30:41.311Z,0.00
2023-04-25T01:31:41.319Z,0.00
2023-04-25T01:32:41.232Z,0.00
2023-04-25T01:33:41.181Z,0.00
2023-04-25T01:34:41.131Z,0.00
2023-04-25T01:35:41.083Z,0.00
2023-04-25T01:36:41.053Z,0.00
2023-04-25T01:37:41.036Z,0.00
2023-04-25T01:38:40.949Z,0.00
2023-04-25T01:39:40.903Z,0.00
2023-04-25T01:40:40.901Z,0.00
2023-04-25T01:41:40.814Z,0.00
2023-04-25T01:42:40.776Z,0.00
2023-04-25T01:43:40.721Z,0.00
2023-04-25T01:44:40.682Z,0.00
2023-04-25T01:45:40.661Z,0.00
2023-04-25T01:46:40.749Z,0.00
2023-04-25T01:47:40.556Z,0.00
2023-04-25T01:48:40.494Z,0.00
2023-04-25T01:49:40.446Z,0.00
2023-04-25T01:50:40.406Z,0.00
2023-04-25T01:51:40.353Z,0.00
2023-04-25T01:52:40.349Z,0.00
2023-04-25T01:53:40.266Z,0.00
2023-04-25T01:54:40.223Z,0.00
2023-04-25T01:55:40.176Z,0.00
2023-04-25T01:56:40.138Z,0.00
2023-04-25T01:57:40.084Z,0.00
2023-04-25T01:58:40.076Z,0.00
2023-04-25T01:59:39.993Z,0.00
2023-04-25T02:00:39.941Z,0.00
2023-04-25T02:01:39.906Z,0.00
2023-04-25T02:02:39.986Z,0.00
2023-04-25T02:03:40.123Z,0.00
2023-04-25T02:04:39.879Z,0.00
2023-04-25T02:05:39.718Z,0.00
2023-04-25T02:06:39.670Z,0.00
2023-04-25T02:07:39.627Z,0.00
2023-04-25T02:08:39.584Z,0.00
2023-04-25T02:09:39.541Z,0.00
2023-04-25T02:10:39.510Z,0.00
2023-04-25T02:11:39.444Z,0.00
2023-04-25T02:12:39.405Z,0.00
2023-04-25T02:13:39.358Z,0.00
2023-04-25T02:14:39.313Z,0.00
2023-04-25T02:15:39.300Z,0.00
2023-04-25T02:16:39.277Z,0.00
2023-04-25T02:17:39.190Z,0.00
2023-04-25T02:18:39.128Z,0.00
2023-04-25T02:19:39.081Z,0.00
2023-04-25T02:20:39.036Z,0.00
2023-04-25T02:21:38.990Z,0.00
2023-04-25T02:22:39.013Z,0.00
2023-04-25T02:23:38.905Z,0.00
2023-04-25T02:24:38.852Z,0.00
2023-04-25T02:25:38.812Z,0.00
2023-04-25T02:26:38.801Z,0.00
2023-04-25T02:27:38.713Z,0.00
2023-04-25T02:28:38.671Z,0.00
2023-04-25T02:29:38.627Z,0.00
2023-04-25T02:30:38.593Z,0.00
2023-04-25T02:31:38.601Z,0.00
2023-04-25T02:32:38.559Z,0.00
2023-04-25T02:33:38.450Z,0.00
2023-04-25T02:34:38.396Z,0.00
2023-04-25T02:35:38.346Z,0.00
2023-04-25T02:36:38.308Z,0.00
2023-04-25T02:37:38.284Z,0.00
2023-04-25T02:38:38.221Z,0.00
2023-04-25T02:39:38.163Z,0.00
2023-04-25T02:40:38.129Z,0.00
2023-04-25T02:41:38.078Z,0.00
2023-04-25T02:42:38.021Z,0.00
2023-04-25T02:43:38.020Z,0.00
2023-04-25T02:44:37.934Z,0.00
2023-04-25T02:45:37.888Z,0.00
2023-04-25T02:46:39.734Z,0.00
2023-04-25T02:47:37.832Z,0.00
2023-04-25T02:48:37.745Z,0.00
2023-04-25T02:49:37.714Z,0.00
2023-04-25T02:50:37.760Z,0.00
2023-04-25T02:51:37.610Z,0.00
2023-04-25T02:52:37.562Z,0.00
2023-04-25T02:53:37.518Z,0.00
2023-04-25T02:54:37.476Z,0.00
2023-04-25T02:55:37.431Z,0.00
2023-04-25T02:56:37.405Z,0.00
2023-04-25T02:57:37.334Z,0.00
2023-04-25T02:58:37.300Z,0.00
2023-04-25T02:59:37.237Z,0.00
2023-04-25T03:00:37.229Z,0.00
2023-04-25T03:01:37.162Z,0.00
2023-04-25T03:02:37.193Z,0.00
2023-04-25T03:03:37.118Z,0.00
2023-04-25T03:04:37.013Z,0.00
2023-04-25T03:05:36.962Z,0.00
2023-04-25T03:06:36.920Z,0.00
2023-04-25T03:07:36.868Z,0.00
2023-04-25T03:08:36.864Z,0.00
2023-04-25T03:09:36.778Z,0.00
2023-04-25T03:10:36.730Z,0.00
2023-04-25T03:11:36.684Z,0.00
2023-04-25T03:12:36.640Z,0.00
2023-04-25T03:13:36.594Z,0.00
2023-04-25T03:14:36.729Z,0.00
2023-04-25T03:15:36.512Z,0.00
2023-04-25T03:16:36.511Z,0.00
2023-04-25T03:17:36.446Z,0.00
2023-04-25T03:18:36.356Z,0.00
2023-04-25T03:19:36.307Z,0.00
2023-04-25T03:20:36.283Z,0.00
2023-04-25T03:21:36.223Z,0.00
2023-04-25T03:22:36.184Z,0.00
2023-04-25T03:23:36.126Z,0.00
2023-04-25T03:24:36.097Z,0.00
2023-04-25T03:25:36.037Z,0.00
2023-04-25T03:26:36.021Z,0.00
2023-04-25T03:27:35.944Z,0.00
2023-04-25T03:28:35.902Z,0.00
2023-04-25T03:29:35.843Z,0.00
2023-04-25T03:30:35.808Z,0.00
2023-04-25T03:31:35.795Z,0.00
2023-04-25T03:32:35.821Z,0.00
2023-04-25T03:33:35.667Z,0.00
2023-04-25T03:34:35.622Z,0.00
2023-04-25T03:35:35.569Z,0.00
2023-04-25T03:36:35.526Z,0.00
2023-04-25T03:37:35.488Z,0.00
2023-04-25T03:38:35.474Z,0.00
2023-04-25T03:39:35.385Z,0.00
2023-04-25T03:40:35.351Z,0.00
2023-04-25T03:41:35.297Z,0.00
2023-04-25T03:42:35.251Z,0.00
2023-04-25T03:43:35.198Z,0.00
2023-04-25T03:44:35.175Z,0.00
2023-04-25T03:45:35.132Z,0.00
2023-04-25T03:46:35.061Z,0.00
2023-04-25T03:47:35.048Z,0.00
2023-04-25T03:48:34.966Z,0.00
2023-04-25T03:49:34.930Z,0.00
2023-04-25T03:50:34.912Z,0.00
2023-04-25T03:51:34.829Z,0.00
2023-04-25T03:52:34.782Z,0.00
2023-04-25T03:53:34.795Z,0.00
2023-04-25T03:54:34.700Z,0.00
2023-04-25T03:55:34.641Z,0.00
2023-04-25T03:56:34.597Z,0.00
2023-04-25T03:57:34.554Z,0.00
2023-04-25T03:58:34.776Z,0.00
2023-04-25T03:59:34.451Z,0.00
2023-04-25T04:00:34.421Z,0.00
2023-04-25T04:01:34.375Z,0.00
2023-04-25T04:02:34.422Z,0.00
2023-04-25T04:03:34.447Z,0.00
2023-04-25T04:04:34.497Z,0.00
2023-04-25T04:05:34.243Z,0.00
2023-04-25T04:06:34.132Z,0.00
2023-04-25T04:07:34.089Z,0.00
2023-04-25T04:08:34.040Z,0.00
2023-04-25T04:09:34.000Z,0.00
2023-04-25T04:10:33.979Z,0.00
2023-04-25T04:11:33.896Z,0.00
2023-04-25T04:12:33.851Z,5.63
2023-04-25T04:13:33.808Z,5.63
2023-04-25T04:14:33.762Z,5.63
2023-04-25T04:15:33.727Z,5.63
2023-04-25T04:16:34.607Z,5.63
2023-04-25T04:17:33.672Z,5.63
2023-04-25T04:18:33.569Z,11.25
2023-04-25T04:19:33.574Z,11.25
2023-04-25T04:20:33.478Z,11.25
2023-04-25T04:21:33.453Z,11.25
2023-04-25T04:22:33.402Z,16.88
2023-04-25T04:23:33.338Z,16.88
2023-04-25T04:24:33.296Z,16.88
2023-04-25T04:25:33.258Z,22.50
2023-04-25T04:26:33.206Z,22.50
2023-04-25T04:27:33.161Z,22.50
2023-04-25T04:28:33.107Z,28.13
2023-04-25T04:29:33.096Z,28.13
2023-04-25T04:30:33.016Z,33.75
2023-04-25T04:31:33.073Z,33.75
2023-04-25T04:32:32.943Z,33.75
2023-04-25T04:33:32.907Z,39.38
2023-04-25T04:34:32.829Z,39.38
2023-04-25T04:35:32.813Z,39.38
2023-04-25T04:36:32.732Z,45.00
2023-04-25T04:37:32.683Z,45.00
2023-04-25T04:38:32.644Z,50.63
2023-04-25T04:39:32.592Z,56.25
2023-04-25T04:40:32.549Z,61.88
2023-04-25T04:41:32.517Z,67.50
2023-04-25T04:42:32.460Z,78.75
2023-04-25T04:43:32.412Z,84.38
2023-04-25T04:44:32.366Z,84.38
2023-04-25T04:45:32.313Z,84.38
2023-04-25T04:46:32.321Z,90.00
2023-04-25T04:47:32.294Z,101.25
2023-04-25T04:48:32.174Z,106.88
2023-04-25T04:49:32.128Z,112.50
2023-04-25T04:50:32.080Z,123.75
2023-04-25T04:51:32.028Z,135.00
2023-04-25T04:52:31.989Z,140.63
2023-04-25T04:53:31.966Z,146.25
2023-04-25T04:54:31.936Z,140.63
2023-04-25T04:55:31.843Z,140.63
2023-04-25T04:56:31.800Z,129.38
2023-04-25T04:57:31.752Z,118.13
2023-04-25T04:58:31.718Z,106.88
2023-04-25T04:59:31.664Z,101.25
2023-04-25T05:00:31.697Z,95.63
2023-04-25T05:01:31.581Z,90.00
2023-04-25T05:02:31.631Z,84.38
2023-04-25T05:03:31.688Z,84.38
2023-04-25T05:04:31.577Z,84.38
2023-04-25T05:05:31.406Z,78.75
2023-04-25T05:06:31.340Z,73.13
2023-04-25T05:07:31.320Z,67.50
2023-04-25T05:08:31.269Z,67.50
2023-04-25T05:09:31.210Z,67.50
2023-04-25T05:10:31.151Z,67.50
2023-04-25T05:11:31.115Z,73.13
2023-04-25T05:12:31.058Z,73.13
2023-04-25T05:13:31.015Z,78.75
2023-04-25T05:14:30.994Z,84.38
2023-04-25T05:15:30.934Z,90.00
2023-04-25T05:16:30.936Z,101.25
2023-04-25T05:17:30.843Z,106.88
2023-04-25T05:18:30.785Z,112.50
2023-04-25T05:19:30.736Z,123.75
2023-04-25T05:20:30.736Z,129.38
2023-04-25T05:21:30.648Z,135.00
2023-04-25T05:22:30.600Z,129.38
2023-04-25T05:23:30.997Z,129.38
2023-04-25T05:24:30.518Z,135.00
2023-04-25T05:25:30.454Z,151.88
2023-04-25T05:26:30.437Z,185.63
2023-04-25T05:27:30.372Z,230.63
2023-04-25T05:28:30.323Z,281.25
2023-04-25T05:29:30.284Z,326.25
2023-04-25T05:30:30.227Z,348.75
2023-04-25T05:31:30.206Z,354.38
2023-04-25T05:32:30.284Z,348.75
2023-04-25T05:33:30.089Z,303.75
2023-04-25T05:34:30.045Z,230.63
2023-04-25T05:35:30.091Z,157.50
2023-04-25T05:36:29.948Z,112.50
2023-04-25T05:37:29.911Z,106.88
2023-04-25T05:38:29.875Z,101.25
2023-04-25T05:39:29.810Z,95.63
2023-04-25T05:40:29.766Z,95.63
2023-04-25T05:41:29.719Z,90.00
2023-04-25T05:42:29.674Z,78.75
2023-04-25T05:43:29.629Z,61.88
2023-04-25T05:44:29.608Z,56.25
2023-04-25T05:45:29.553Z,50.63
2023-04-25T05:46:29.550Z,50.63
2023-04-25T05:47:29.467Z,50.63
2023-04-25T05:48:29.419Z,56.25
2023-04-25T05:49:29.346Z,56.25
2023-04-25T05:50:29.310Z,56.25
2023-04-25T05:51:29.259Z,56.25
2023-04-25T05:52:29.235Z,50.63
2023-04-25T05:53:29.164Z,50.63
2023-04-25T05:54:29.117Z,50.63
2023-04-25T05:55:29.070Z,50.63
2023-04-25T05:56:29.043Z,45.00
2023-04-25T05:57:28.988Z,56.25
2023-04-25T05:58:28.926Z,61.88
2023-04-25T05:59:28.913Z,61.88
2023-04-25T06:03:48.185Z,61.88
2023-04-25T06:04:47.640Z,61.88
2023-04-25T06:05:47.764Z,67.50
2023-04-25T06:06:47.455Z,73.13
2023-04-25T06:07:47.539Z,95.63
2023-04-25T06:08:47.572Z,118.13
2023-04-25T06:09:47.287Z,123.75
2023-04-25T06:10:47.569Z,129.38
2023-04-25T06:11:47.226Z,135.00
2023-04-25T06:12:47.381Z,140.63
2023-04-25T06:13:47.096Z,140.63
2023-04-25T06:14:47.233Z,168.75
2023-04-25T06:15:47.023Z,208.13
2023-04-25T06:16:47.196Z,258.75
2023-04-25T06:17:46.953Z,303.75
2023-04-25T06:18:47.014Z,315.00
2023-04-25T06:19:46.816Z,292.50
2023-04-25T06:20:46.788Z,241.88
2023-04-25T06:21:46.830Z,230.63
2023-04-25T06:22:46.674Z,281.25
2023-04-25T06:23:46.848Z,348.75
2023-04-25T06:24:46.581Z,376.88
2023-04-25T06:25:46.855Z,348.75
2023-04-25T06:26:46.490Z,281.25
2023-04-25T06:27:46.661Z,247.50
2023-04-25T06:28:46.384Z,253.13
2023-04-25T06:29:46.674Z,298.13
2023-04-25T06:30:46.292Z,286.88
2023-04-25T06:31:47.175Z,213.75
2023-04-25T06:32:46.228Z,196.88
2023-04-25T06:33:46.306Z,225.00
2023-04-25T06:34:46.109Z,230.63
2023-04-25T06:35:46.540Z,219.38
2023-04-25T06:36:46.014Z,202.50
2023-04-25T06:37:45.971Z,225.00
2023-04-25T06:38:45.960Z,258.75
2023-04-25T06:39:46.143Z,286.88
2023-04-25T06:40:45.826Z,365.63
2023-04-25T06:41:46.973Z,365.63
2023-04-25T06:42:45.745Z,354.38
2023-04-25T06:43:45.687Z,393.75
2023-04-25T06:44:45.675Z,365.63
2023-04-25T06:45:48.299Z,343.13
2023-04-25T06:46:45.616Z,315.00
2023-04-25T06:47:45.926Z,298.13
2023-04-25T06:48:45.536Z,281.25
2023-04-25T06:49:45.412Z,281.25
2023-04-25T06:50:45.655Z,292.50
2023-04-25T06:51:45.629Z,337.50
2023-04-25T06:52:45.288Z,348.75
2023-04-25T06:53:45.424Z,354.38
2023-04-25T06:54:45.183Z,337.50
2023-04-25T06:55:45.168Z,326.25
2023-04-25T06:56:45.077Z,337.50
2023-04-25T06:57:45.249Z,309.38
2023-04-25T06:58:44.998Z,303.75
2023-04-25T06:59:45.058Z,258.75
2023-04-25T07:00:45.126Z,298.13
2023-04-25T07:01:44.854Z,315.00
2023-04-25T07:02:45.014Z,365.63
2023-04-25T07:03:45.071Z,483.75
2023-04-25T07:04:44.829Z,618.75
2023-04-25T07:05:44.894Z,573.75
2023-04-25T07:06:44.631Z,478.13
2023-04-25T07:07:44.577Z,405.00
2023-04-25T07:08:44.919Z,388.13
2023-04-25T07:09:44.485Z,427.50
2023-04-25T07:10:44.733Z,517.50
2023-04-25T07:11:44.394Z,585.00
2023-04-25T07:12:44.554Z,562.50
2023-04-25T07:13:44.547Z,540.00
2023-04-25T07:14:44.308Z,511.88
2023-04-25T07:15:44.363Z,511.88
2023-04-25T07:16:44.192Z,545.63
2023-04-25T07:17:44.467Z,523.13
2023-04-25T07:18:44.069Z,517.50
2023-04-25T07:19:44.030Z,523.13
2023-04-25T07:20:44.395Z,466.88
2023-04-25T07:21:43.934Z,444.38
2023-04-25T07:22:44.206Z,466.88
2023-04-25T07:23:43.840Z,489.38
2023-04-25T07:24:44.017Z,511.88
2023-04-25T07:25:43.760Z,551.25
2023-04-25T07:26:43.832Z,579.38
2023-04-25T07:27:43.658Z,596.25
2023-04-25T07:28:44.053Z,596.25
2023-04-25T07:29:43.569Z,585.00
2023-04-25T07:30:43.666Z,573.75
2023-04-25T07:31:43.496Z,590.63
2023-04-25T07:32:43.696Z,613.13
2023-04-25T07:33:43.402Z,658.13
2023-04-25T07:34:43.714Z,787.50
2023-04-25T07:35:43.293Z,866.25
2023-04-25T07:36:43.446Z,900.00
2023-04-25T07:37:43.225Z,933.75
2023-04-25T07:38:43.408Z,1001.25
2023-04-25T07:39:43.129Z,1057.50
2023-04-25T07:40:43.420Z,1113.75
2023-04-25T07:41:43.023Z,1113.75
2023-04-25T07:42:42.973Z,1136.25
2023-04-25T07:43:42.923Z,1203.75
2023-04-25T07:44:43.066Z,1192.50
2023-04-25T07:45:42.912Z,1170.00
2023-04-25T07:46:43.289Z,1186.88
2023-04-25T07:47:43.183Z,1153.13
2023-04-25T07:48:42.717Z,1051.88
2023-04-25T07:49:42.877Z,967.50
2023-04-25T07:50:42.618Z,956.25
2023-04-25T07:51:42.694Z,978.75
2023-04-25T07:52:42.622Z,939.38
2023-04-25T07:53:42.488Z,883.13
2023-04-25T07:54:42.460Z,866.25
2023-04-25T07:55:42.502Z,894.38
2023-04-25T07:56:52.280Z,1018.13
2023-04-25T07:57:42.288Z,1186.88
2023-04-25T07:58:43.818Z,1473.75
2023-04-25T07:59:42.328Z,1541.25
2023-04-25T08:00:42.146Z,1614.38
2023-04-25T08:01:42.357Z,1490.63
2023-04-25T08:02:42.167Z,1355.63
2023-04-25T08:03:42.368Z,1276.88
2023-04-25T08:04:42.274Z,1158.75
2023-04-25T08:05:42.032Z,1096.88
2023-04-25T08:06:42.328Z,1001.25
2023-04-25T08:07:41.843Z,973.13
2023-04-25T08:08:41.989Z,781.88
2023-04-25T08:09:41.753Z,810.00
2023-04-25T08:10:42.111Z,804.38
2023-04-25T08:11:41.659Z,585.00
2023-04-25T08:12:41.809Z,427.50
2023-04-25T08:13:41.613Z,343.13
2023-04-25T08:14:41.827Z,281.25
2023-04-25T08:15:41.537Z,275.63
2023-04-25T08:16:41.507Z,275.63
2023-04-25T08:17:41.697Z,320.63
2023-04-25T08:18:41.907Z,495.00
2023-04-25T08:19:41.455Z,523.13
2023-04-25T08:20:41.276Z,326.25
2023-04-25T08:21:41.481Z,236.25
2023-04-25T08:22:41.196Z,225.00
2023-04-25T08:23:41.292Z,253.13
2023-04-25T08:24:41.106Z,247.50
2023-04-25T08:25:42.537Z,264.38
2023-04-25T08:26:40.993Z,275.63
2023-04-25T08:27:41.127Z,185.63
2023-04-25T08:28:40.918Z,180.00
2023-04-25T08:29:41.134Z,348.75
2023-04-25T08:30:40.840Z,534.38
2023-04-25T08:31:41.038Z,585.00
2023-04-25T08:32:40.790Z,585.00
2023-04-25T08:33:40.682Z,669.38
2023-04-25T08:34:40.628Z,877.50
2023-04-25T08:35:40.750Z,1040.63
2023-04-25T08:36:40.618Z,1125.00
2023-04-25T08:37:40.769Z,1226.25
2023-04-25T08:38:40.453Z,1305.00
2023-04-25T08:39:40.424Z,1372.50
2023-04-25T08:40:40.358Z,1462.50
2023-04-25T08:41:41.822Z,1575.00
2023-04-25T08:42:40.271Z,1648.13
2023-04-25T08:43:40.415Z,1715.63
2023-04-25T08:44:40.185Z,1766.25
2023-04-25T08:45:40.153Z,1732.50
2023-04-25T08:46:40.152Z,1665.00
2023-04-25T08:47:40.287Z,1569.38
2023-04-25T08:48:40.004Z,1462.50
2023-04-25T08:49:41.261Z,1327.50
2023-04-25T08:50:39.914Z,1209.38
2023-04-25T08:51:39.930Z,1096.88
2023-04-25T08:52:40.081Z,990.00
2023-04-25T08:53:40.283Z,883.13
2023-04-25T08:54:41.537Z,900.00
2023-04-25T08:55:39.696Z,1085.63
2023-04-25T08:56:39.780Z,1254.38
2023-04-25T08:57:39.611Z,1186.88
2023-04-25T08:58:39.586Z,1046.25
2023-04-25T08:59:39.542Z,905.63
2023-04-25T09:00:39.939Z,787.50
2023-04-25T09:01:39.581Z,691.88
2023-04-25T09:02:40.666Z,714.38
2023-04-25T09:03:39.395Z,765.00
2023-04-25T09:04:39.327Z,720.00
2023-04-25T09:05:39.363Z,708.75
2023-04-25T09:06:39.346Z,894.38
2023-04-25T09:07:39.172Z,1063.13
2023-04-25T09:08:39.144Z,1130.63
2023-04-25T09:09:39.261Z,1108.13
2023-04-25T09:10:39.181Z,1046.25
2023-04-25T09:11:39.220Z,843.75
2023-04-25T09:12:38.979Z,725.63
2023-04-25T09:13:38.904Z,731.25
2023-04-25T09:14:38.985Z,742.50
2023-04-25T09:15:38.800Z,742.50
2023-04-25T09:16:40.422Z,736.88
2023-04-25T09:17:38.754Z,815.63
2023-04-25T09:18:38.821Z,1085.63
2023-04-25T09:19:40.901Z,1479.38
2023-04-25T09:20:51.015Z,1912.50
2023-04-25T09:21:38.627Z,1996.88
2023-04-25T09:22:38.518Z,1794.38
2023-04-25T09:23:38.494Z,1653.75
2023-04-25T09:24:38.445Z,1597.50
2023-04-25T09:25:38.359Z,1636.88
2023-04-25T09:26:38.323Z,1726.88
2023-04-25T09:27:38.273Z,1940.63
2023-04-25T09:28:38.267Z,2053.13
2023-04-25T09:29:38.336Z,1749.38
2023-04-25T09:30:39.314Z,1524.38
2023-04-25T09:31:38.230Z,1580.63
2023-04-25T09:32:38.104Z,1890.00
2023-04-25T09:33:38.145Z,2064.38
2023-04-25T09:34:37.965Z,2345.63
2023-04-25T09:35:38.114Z,1546.88
2023-04-25T09:36:37.915Z,1231.88
2023-04-25T09:37:37.838Z,1226.25
2023-04-25T09:38:37.940Z,1271.25
2023-04-25T09:39:37.747Z,1445.63
2023-04-25T09:40:37.944Z,1653.75
2023-04-25T09:41:37.660Z,1828.13
2023-04-25T09:42:37.770Z,1946.25
2023-04-25T09:43:37.780Z,1586.25
2023-04-25T09:44:37.536Z,1631.25
2023-04-25T09:45:37.583Z,2013.75
2023-04-25T09:46:37.723Z,2323.13
2023-04-25T09:47:38.632Z,1901.25
2023-04-25T09:48:37.365Z,1839.38
2023-04-25T09:49:37.324Z,2221.88
2023-04-25T09:50:37.283Z,2328.75
2023-04-25T09:51:37.430Z,2396.25
2023-04-25T09:52:37.480Z,2385.00
2023-04-25T09:53:37.233Z,2716.88
2023-04-25T09:54:37.112Z,2745.00
2023-04-25T09:55:37.240Z,2953.13
2023-04-25T09:56:37.229Z,3189.38
2023-04-25T09:57:37.081Z,2846.25
2023-04-25T09:58:36.973Z,5681.25
2023-04-25T09:59:37.066Z,5478.75
2023-04-25T10:00:37.072Z,5670.00
2023-04-25T10:01:36.981Z,1811.25
2023-04-25T10:02:36.958Z,1575.00
2023-04-25T10:03:36.916Z,1867.50
2023-04-25T10:04:36.950Z,1935.00
2023-04-25T10:05:36.704Z,1743.75
2023-04-25T10:06:36.624Z,1884.38
2023-04-25T10:07:36.581Z,6260.63
2023-04-25T10:08:36.723Z,2058.75
2023-04-25T10:09:36.495Z,1974.38
2023-04-25T10:10:36.740Z,1665.00
2023-04-25T10:11:36.463Z,1524.38
2023-04-25T10:12:36.373Z,1366.88
2023-04-25T10:13:36.563Z,1451.25
2023-04-25T10:14:36.318Z,1496.25
2023-04-25T10:15:38.998Z,1406.25
2023-04-25T10:16:36.650Z,1451.25
2023-04-25T10:17:36.424Z,1597.50
2023-04-25T10:18:36.157Z,1513.13
2023-04-25T10:19:36.190Z,1327.50
2023-04-25T10:20:36.090Z,1181.25
2023-04-25T10:21:37.229Z,1029.38
2023-04-25T10:22:35.996Z,860.63
2023-04-25T10:23:35.936Z,798.75
2023-04-25T10:24:35.897Z,776.25
2023-04-25T10:25:36.065Z,798.75
2023-04-25T10:26:35.817Z,916.88
2023-04-25T10:27:35.854Z,1119.38
2023-04-25T10:28:35.910Z,1327.50
2023-04-25T10:29:35.688Z,1372.50
2023-04-25T10:30:35.675Z,1293.75
2023-04-25T10:31:35.744Z,1231.88
2023-04-25T10:32:35.575Z,1209.38
2023-04-25T10:33:35.909Z,1203.75
2023-04-25T10:34:35.518Z,1170.00
2023-04-25T10:35:35.438Z,1096.88
2023-04-25T10:36:35.526Z,1006.88
2023-04-25T10:37:35.401Z,855.00
2023-04-25T10:38:36.532Z,669.38
2023-04-25T10:39:35.281Z,523.13
2023-04-25T10:40:35.315Z,433.13
2023-04-25T10:41:35.368Z,405.00
2023-04-25T10:42:35.164Z,433.13
2023-04-25T10:43:37.613Z,478.13
2023-04-25T10:44:35.067Z,500.63
2023-04-25T10:45:35.150Z,500.63
2023-04-25T10:46:35.073Z,472.50
2023-04-25T10:47:35.006Z,466.88
2023-04-25T10:48:34.895Z,500.63
2023-04-25T10:49:34.979Z,590.63
2023-04-25T10:50:34.815Z,731.25
2023-04-25T10:51:47.281Z,804.38
2023-04-25T10:52:34.733Z,776.25
2023-04-25T10:53:34.695Z,770.63
2023-04-25T10:54:34.805Z,821.25
2023-04-25T10:55:34.866Z,826.88
2023-04-25T10:56:34.620Z,826.88
2023-04-25T10:57:34.571Z,804.38
2023-04-25T10:58:34.640Z,742.50
2023-04-25T10:59:34.425Z,697.50
2023-04-25T11:00:53.125Z,669.38
2023-04-25T11:01:34.400Z,703.13
2023-04-25T11:02:34.562Z,821.25
2023-04-25T11:03:34.429Z,939.38
2023-04-25T11:04:34.575Z,1046.25
2023-04-25T11:05:36.522Z,1130.63
2023-04-25T11:06:34.283Z,1096.88
2023-04-25T11:07:34.340Z,1029.38
2023-04-25T11:08:36.141Z,1006.88
2023-04-25T11:09:33.996Z,1035.00
2023-04-25T11:10:34.029Z,1068.75
2023-04-25T11:11:33.911Z,1029.38
2023-04-25T11:12:34.120Z,973.13
2023-04-25T11:13:34.013Z,984.38
2023-04-25T11:14:33.974Z,1057.50
2023-04-25T11:15:33.760Z,1158.75
2023-04-25T11:16:33.748Z,1293.75
2023-04-25T11:17:33.808Z,1434.38
2023-04-25T11:18:33.760Z,1620.00
2023-04-25T11:19:33.624Z,1861.88
2023-04-25T11:20:33.788Z,2137.50
2023-04-25T11:21:33.494Z,1996.88
2023-04-25T11:22:33.466Z,1957.50
2023-04-25T11:23:33.598Z,1839.38
2023-04-25T11:24:33.374Z,1693.13
2023-04-25T11:25:34.422Z,1636.88
2023-04-25T11:26:33.285Z,1665.00
2023-04-25T11:27:33.416Z,1603.13
2023-04-25T11:28:33.194Z,1496.25
2023-04-25T11:29:33.221Z,1411.88
2023-04-25T11:30:33.113Z,1445.63
2023-04-25T11:31:33.293Z,1479.38
2023-04-25T11:32:33.224Z,1406.25
2023-04-25T11:33:32.991Z,1518.75
2023-04-25T11:34:32.946Z,1591.88
2023-04-25T11:35:33.075Z,2070.00
2023-04-25T11:36:32.864Z,3341.25
2023-04-25T11:37:33.075Z,6592.50
2023-04-25T11:38:32.784Z,3268.13
2023-04-25T11:39:32.737Z,2058.75
2023-04-25T11:40:32.722Z,2565.00
2023-04-25T11:41:32.902Z,2160.00
2023-04-25T11:42:32.757Z,2694.38
2023-04-25T11:43:32.790Z,3673.13
2023-04-25T11:44:32.557Z,2306.25
2023-04-25T11:45:32.543Z,5293.13
2023-04-25T11:46:32.585Z,2542.50
2023-04-25T11:47:32.562Z,2750.63
2023-04-25T11:48:32.552Z,3031.88
2023-04-25T11:49:32.553Z,4038.75
2023-04-25T11:50:32.568Z,4426.88
2023-04-25T11:51:32.379Z,5017.50
2023-04-25T11:52:32.221Z,5883.75
2023-04-25T11:53:32.197Z,5169.38
2023-04-25T11:54:32.387Z,6665.63
2023-04-25T11:55:32.108Z,4421.25
2023-04-25T11:56:32.209Z,3853.13
2023-04-25T11:57:32.427Z,3369.38
2023-04-25T11:58:31.988Z,2733.75
2023-04-25T11:59:32.236Z,2491.88
2023-04-25T12:00:31.929Z,2250.00
2023-04-25T12:01:35.190Z,2064.38
2023-04-25T12:02:31.940Z,1878.75
2023-04-25T12:03:32.065Z,1715.63
2023-04-25T12:04:32.170Z,1575.00
2023-04-25T12:05:33.344Z,1451.25
2023-04-25T12:06:31.768Z,1366.88
2023-04-25T12:07:32.082Z,1288.13
2023-04-25T12:08:31.620Z,1237.50
2023-04-25T12:09:31.575Z,1198.13
2023-04-25T12:10:31.683Z,1215.00
2023-04-25T12:11:31.505Z,1254.38
2023-04-25T12:12:31.740Z,1355.63
2023-04-25T12:13:31.435Z,1473.75
2023-04-25T12:14:31.517Z,1580.63
2023-04-25T12:15:31.352Z,1670.63
2023-04-25T12:16:32.584Z,1861.88
2023-04-25T12:17:31.396Z,2041.88
2023-04-25T12:18:31.350Z,2030.63
2023-04-25T12:19:31.178Z,1968.75
2023-04-25T12:20:31.148Z,2120.63
2023-04-25T12:21:31.100Z,2587.50
2023-04-25T12:22:31.172Z,3037.50
2023-04-25T12:23:31.047Z,6654.38
2023-04-25T12:24:31.177Z,6851.25
2023-04-25T12:25:32.262Z,4876.88
2023-04-25T12:26:30.907Z,6221.25
2023-04-25T12:27:30.902Z,6519.38
2023-04-25T12:28:31.005Z,5872.50
2023-04-25T12:29:34.704Z,4708.13
2023-04-25T12:30:30.756Z,2548.13
2023-04-25T12:31:30.869Z,2868.75
2023-04-25T12:32:31.101Z,1760.63
2023-04-25T12:33:30.644Z,1406.25
2023-04-25T12:34:30.838Z,1248.75
2023-04-25T12:35:30.611Z,1164.38
2023-04-25T12:36:30.659Z,1130.63
2023-04-25T12:37:30.510Z,1119.38
2023-04-25T12:38:30.452Z,1158.75
2023-04-25T12:39:30.669Z,1260.00
2023-04-25T12:40:30.380Z,1355.63
2023-04-25T12:41:30.488Z,1468.13
2023-04-25T12:42:30.310Z,5540.63
2023-04-25T12:43:30.727Z,5265.00